Time;durP1;ratioP1;P1;durP2;ratioP2;P2;SDS_P1;SDS_P2;PMS_P1;PMS_P2;Temp;Humidity;BMP_temperature;BMP_pressure;BME280_temperature;BME280_humidity;BME280_pressure;Samples;Min_cycle;Max_cycle;Signal;HPM_P1;HPM_P2
2023/08/30 00:01:01;;;;;;;7.13;4.32;;;;;;;-144.05;77.10;56946.53;5033604;28;20036;-80
2023/08/30 00:03:27;;;;;;;5.13;3.80;;;;;;;-144.05;76.99;56929.53;5033733;28;20034;-79
2023/08/30 00:05:55;;;;;;;7.05;4.28;;;;;;;-144.05;77.29;56929.53;5033358;28;20029;-80
2023/08/30 00:08:21;;;;;;;9.32;5.03;;;;;;;-144.05;77.69;56946.53;5033768;28;20030;-80
2023/08/30 00:10:48;;;;;;;10.65;6.00;;;15.10;99.90;;;-144.05;78.05;56940.16;5033334;28;20476;-80
2023/08/30 00:13:14;;;;;;;8.60;5.35;;;;;;;-144.05;78.48;56901.94;5033357;28;20548;-80
2023/08/30 00:15:41;;;;;;;6.55;4.68;;;;;;;-144.05;78.60;56950.78;5033276;28;20038;-81
2023/08/30 00:18:07;;;;;;;6.45;4.43;;;;;;;-144.05;78.69;56927.41;5032952;28;20029;-79
2023/08/30 00:20:33;;;;;;;8.93;5.00;;;;;;;-144.05;78.97;56955.03;5033198;28;20029;-80
2023/08/30 00:23:00;;;;;;;8.00;5.63;;;;;;;-144.05;79.22;56933.78;5032927;28;20030;-79
2023/08/30 00:25:26;;;;;;;9.02;6.72;;;;;;;-144.05;79.65;56908.31;5032917;28;20075;-79
2023/08/30 00:27:52;;;;;;;11.75;6.80;;;;;;;-144.05;80.35;56916.81;5032669;28;20032;-79
2023/08/30 00:30:19;;;;;;;10.18;7.30;;;;;;;-144.05;80.33;56916.81;5032886;28;20029;-78
2023/08/30 00:32:45;;;;;;;10.98;7.30;;;;;;;-144.05;80.74;56929.53;5032778;28;20033;-79
2023/08/30 00:35:11;;;;;;;11.23;7.55;;;;;;;-144.05;80.79;56929.53;5032749;28;20034;-79
2023/08/30 00:37:37;;;;;;;14.32;8.23;;;;;;;-144.05;81.00;56946.53;5031161;28;20037;-80
2023/08/30 00:40:05;;;;;;;16.40;8.63;;;;;;;-144.05;81.39;56910.44;5030878;28;20547;-79
2023/08/30 00:42:32;;;;;;;11.93;8.32;;;;;;;-144.05;81.41;56938.03;5032157;28;20423;-80
2023/08/30 00:44:58;;;;;;;14.05;9.55;;;;;;;-144.05;81.32;56865.81;5032610;28;20049;-80
2023/08/30 00:47:24;;;;;;;12.25;9.60;;;;;;;-144.05;80.91;56938.03;5032421;28;20029;-79
2023/08/30 00:49:50;;;;;;;14.52;9.32;;;;;;;-144.05;81.22;56948.66;5047341;28;20128;-79
2023/08/30 00:52:17;;;;;;;13.77;9.15;;;;;;;-144.05;81.31;56959.28;5032124;28;20033;-79
2023/08/30 00:54:44;;;;;;;13.73;8.68;;;;;;;-144.05;81.33;56908.31;5030663;28;20541;-80
2023/08/30 00:57:10;;;;;;;12.10;9.05;;;;;;;-144.05;81.50;56942.28;5030585;28;20508;-79
2023/08/30 00:59:37;;;;;;;12.48;9.15;;;14.80;99.90;;;-144.05;81.55;56944.41;5030472;28;20025;-80
2023/08/30 01:02:05;;;;;;;13.10;9.45;;;14.20;99.90;;;-144.05;81.67;56935.91;5031884;28;20030;-79
2023/08/30 01:04:31;;;;;;;11.25;8.80;;;;;;;-144.05;81.49;56921.06;5031752;28;20022;-79
2023/08/30 01:06:58;;;;;;;13.60;9.55;;;;;;;-144.05;81.84;56938.03;5031815;28;20029;-78
2023/08/30 01:09:25;;;;;;;13.40;9.77;;;;;;;-144.05;82.11;56895.56;5046876;28;20052;-80
2023/08/30 01:12:17;;;;;;;17.38;12.05;;;14.10;99.90;;;-144.05;82.52;56916.81;5032015;28;20033;-78
2023/08/30 01:14:54;;;;;;;15.23;10.35;;;;;;;-144.05;82.22;56938.03;5031644;28;20396;-80
2023/08/30 01:17:24;;;;;;;18.55;11.75;;;15.10;99.90;;;-144.05;82.37;56944.41;5032039;28;20048;-79
2023/08/30 01:20:00;;;;;;;16.88;12.18;;;;;;;-144.05;82.35;56872.19;5031392;28;20037;-79
2023/08/30 01:22:43;;;;;;;16.65;12.30;;;;;;;-144.05;82.86;56927.41;5048760;28;20396;-79
2023/08/30 01:25:15;;;;;;;20.67;13.18;;;13.80;99.90;;;-144.05;82.79;56938.03;5033436;28;20032;-79
2023/08/30 01:27:45;;;;;;;17.20;11.65;;;14.60;99.90;;;-144.05;82.77;56961.41;5035854;28;20048;-81
2023/08/30 01:30:15;;;;;;;23.95;12.88;;;13.70;99.90;;;-144.05;82.74;56969.91;5035616;28;20045;-78
2023/08/30 01:32:43;;;;;;;17.45;12.10;;;;;;;-144.05;83.08;56925.28;5035863;28;20026;-80
2023/08/30 01:35:10;;;;;;;15.48;11.23;;;;;;;-144.05;82.97;56910.44;5036505;28;20026;-80
2023/08/30 01:37:38;;;;;;;15.05;11.15;;;13.60;99.90;;;-144.05;82.97;56904.06;5039759;28;20048;-81
2023/08/30 01:40:07;;;;;;;20.80;13.13;;;13.70;99.90;;;-144.05;83.36;56923.19;5041252;28;20040;-82
2023/08/30 01:42:36;;;;;;;21.33;12.85;;;;;;;-144.05;83.60;56921.06;5040010;28;20030;-82
2023/08/30 01:45:08;;;;;;;19.63;13.10;;;13.50;99.90;;;-144.05;83.31;56955.03;5039008;28;20539;-79
2023/08/30 01:47:35;;;;;;;19.63;12.70;;;;;;;-144.05;83.65;56916.81;5035722;28;20025;-79
2023/08/30 01:50:03;;;;;;;22.10;14.32;;;;;;;-144.05;83.58;56929.53;5035462;28;20404;-79
2023/08/30 01:52:34;;;;;;;18.65;13.25;;;13.40;99.90;;;-144.05;83.73;56931.66;5035500;28;20029;-79
2023/08/30 01:55:03;;;;;;;23.33;14.73;;;13.80;99.90;;;-144.05;83.71;56938.03;5035246;28;20021;-78
2023/08/30 01:57:29;;;;;;;20.23;12.70;;;;;;;-144.05;83.61;56921.06;5043930;28;20094;-78
2023/08/30 01:59:55;;;;;;;17.88;12.93;;;;;;;-144.05;83.67;56923.19;5046548;28;20184;-79
2023/08/30 02:02:21;;;;;;;23.70;14.23;;;;;;;-144.05;83.66;56957.16;5037405;28;20025;-78
2023/08/30 02:04:47;;;;;;;16.48;10.80;;;;;;;-144.05;83.54;56912.56;5035151;28;20061;-80
2023/08/30 02:08:09;;;;;;;19.52;13.93;;;13.40;99.90;;;-144.05;83.99;56940.16;5035218;28;20026;-80
2023/08/30 02:10:44;;;;;;;22.48;13.25;;;13.10;99.90;;;-144.05;83.64;56935.91;5040387;28;20041;-82
2023/08/30 02:13:12;;;;;;;16.42;12.13;;;13.40;99.90;;;-144.05;83.75;56946.53;5038757;28;20365;-81
2023/08/30 02:15:42;;;;;;;19.63;13.68;;;13.30;99.90;;;-144.05;84.13;56914.69;5036277;28;20029;-80
2023/08/30 02:18:09;;;;;;;21.73;13.95;;;;;;;-144.05;83.86;56927.41;5035804;28;20443;-80
2023/08/30 02:20:36;;;;;;;20.88;13.10;;;;;;;-144.05;84.07;56916.81;5036403;28;20030;-80
2023/08/30 02:23:02;;;;;;;23.50;13.10;;;;;;;-144.05;84.16;56921.06;5035850;28;20476;-80
2023/08/30 02:25:28;;;;;;;17.30;12.30;;;;;;;-144.05;84.04;56912.56;5036177;28;20026;-80
2023/08/30 02:27:55;;;;;;;18.42;11.75;;;;;;;-144.05;84.12;56895.56;5050989;28;20399;-80
2023/08/30 02:30:21;;;;;;;18.63;13.52;;;;;;;-144.05;84.20;56931.66;5030487;28;20232;-81
2023/08/30 02:32:47;;;;;;;21.77;14.30;;;;;;;-144.05;84.11;56876.44;5015675;28;20481;-80
2023/08/30 02:35:14;;;;;;;21.58;14.27;;;;;;;-144.05;84.10;56923.19;5015031;28;20060;-81
2023/08/30 02:37:41;;;;;;;18.02;12.43;;;;;;;-144.05;84.07;56918.94;5014959;28;20022;-80
2023/08/30 02:40:08;;;;;;;21.73;14.63;;;;;;;-144.05;84.33;56921.06;5015254;28;20070;-79
2023/08/30 02:42:35;;;;;;;17.77;12.10;;;;;;;-144.05;84.04;56908.31;5015258;28;20033;-80
2023/08/30 02:45:01;;;;;;;17.85;11.02;;;;;;;-144.05;83.85;56929.53;5015047;28;20065;-80
2023/08/30 02:47:27;;;;;;;13.48;10.10;;;;;;;-144.05;83.88;56921.06;5014709;28;20033;-80
2023/08/30 02:49:53;;;;;;;16.15;10.30;;;;;;;-144.05;83.91;56921.06;5014806;28;20108;-78
2023/08/30 02:52:20;;;;;;;16.92;10.52;;;;;;;-144.05;84.03;56893.44;5013255;28;20099;-81
2023/08/30 02:54:46;;;;;;;15.82;9.85;;;;;;;-144.05;84.02;56916.81;5013491;28;20037;-80
2023/08/30 02:57:12;;;;;;;15.02;10.73;;;;;;;-144.05;83.92;56895.56;5013399;28;20030;-79
2023/08/30 02:59:38;;;;;;;18.05;10.60;;;;;;;-144.05;84.13;56931.66;5014372;28;20034;-80
2023/08/30 03:02:05;;;;;;;18.83;11.85;;;;;;;-144.05;84.27;56942.28;5014534;28;20042;-80
2023/08/30 03:04:31;;;;;;;15.40;10.98;;;;;;;-144.05;84.38;56927.41;5014634;28;20057;-81
2023/08/30 03:06:57;;;;;;;16.95;11.40;;;;;;;-144.05;84.58;56904.06;5014836;28;20448;-79
2023/08/30 03:09:23;;;;;;;20.05;12.52;;;;;;;-144.05;84.76;56910.44;5014549;28;20038;-79
2023/08/30 03:11:50;;;;;;;21.88;14.40;;;;;;;-144.05;84.92;56933.78;5014798;28;20389;-79
2023/08/30 03:14:16;;;;;;;21.52;12.77;;;;;;;-144.05;84.69;56895.56;5014680;28;20564;-79
2023/08/30 03:16:45;;;;;;;22.85;13.15;;;;;;;-144.05;84.72;56901.94;5029845;28;20497;-78
2023/08/30 03:19:11;;;;;;;23.55;13.82;;;;;;;-144.05;84.86;56921.06;5014400;28;20049;-79
2023/08/30 03:21:37;;;;;;;20.20;14.30;;;;;;;-144.05;85.03;56893.44;5014239;28;20064;-80
2023/08/30 03:24:04;;;;;;;23.25;14.25;;;;;;;-144.05;85.10;56929.53;5014257;28;20420;-79
2023/08/30 03:26:30;;;;;;;18.45;13.00;;;;;;;-144.05;84.93;56923.19;5014188;28;20032;-80
2023/08/30 03:28:56;;;;;;;24.55;15.20;;;;;;;-144.05;85.37;56921.06;5033354;28;20029;-79
2023/08/30 03:31:23;;;;;;;24.33;14.40;;;;;;;-144.05;85.38;56961.41;5049075;28;20030;-80
2023/08/30 03:33:50;;;;;;;23.77;13.77;;;;;;;-144.05;85.19;56916.81;5032361;28;20026;-80
2023/08/30 03:36:18;;;;;;;19.70;12.95;;;13.50;99.90;;;-144.05;85.19;56925.28;5033614;28;20596;-81
2023/08/30 03:38:45;;;;;;;17.83;11.88;;;12.70;99.90;;;-144.05;85.27;56942.28;5033344;28;20033;-79
2023/08/30 03:41:13;;;;;;;19.83;13.43;;;;;;;-144.05;85.52;56946.53;5033266;28;20029;-79
2023/08/30 03:43:39;;;;;;;28.13;16.42;;;;;;;-144.05;85.83;56893.44;5033294;28;20416;-79
2023/08/30 03:46:06;;;;;;;35.53;19.88;;;;;;;-144.05;86.42;56893.44;5035285;28;20029;-79
2023/08/30 03:48:32;;;;;;;32.60;21.45;;;;;;;-144.05;86.72;56923.19;5036602;28;20413;-80
2023/08/30 03:50:59;;;;;;;36.55;22.98;;;;;;;-144.05;86.85;56933.78;5050777;28;20380;-81
2023/08/30 03:53:25;;;;;;;32.75;21.58;;;;;;;-144.05;86.76;56901.94;5034138;28;20056;-80
2023/08/30 03:55:52;;;;;;;32.80;20.83;;;;;;;-144.05;86.67;56891.31;5033655;28;20508;-79
2023/08/30 03:58:19;;;;;;;34.67;21.23;;;13.60;99.90;;;-144.05;86.92;56918.94;5048681;28;20041;-79
2023/08/30 04:00:46;;;;;;;37.33;21.05;;;;;;;-144.05;87.25;56927.41;5033563;28;20036;-79
2023/08/30 04:03:15;;;;;;;34.20;20.13;;;12.90;99.90;;;-144.05;87.22;56948.66;5049039;28;20029;-81
2023/08/30 04:05:42;;;;;;;29.05;20.38;;;;;;;-144.05;87.12;56935.91;5032252;28;20033;-80
2023/08/30 04:08:09;;;;;;;36.00;21.30;;;;;;;-144.05;87.15;56912.56;5032937;28;20113;-79
2023/08/30 04:10:38;;;;;;;34.17;19.63;;;13.70;99.90;;;-144.05;87.12;56938.03;5034672;28;20480;-80
2023/08/30 04:13:05;;;;;;;29.13;19.55;;;;;;;-144.05;86.88;56965.66;5038490;28;20052;-82
2023/08/30 04:15:39;;;;;;;26.73;17.13;;;12.90;99.90;;;-144.05;86.79;56948.66;5036932;28;20404;-79
2023/08/30 04:18:06;;;;;;;30.23;18.50;;;14.10;99.90;;;-144.05;86.77;56959.28;5035372;28;20408;-80
2023/08/30 04:20:33;;;;;;;33.03;18.80;;;;;;;-144.05;86.71;56916.81;5034372;28;20045;-81
2023/08/30 04:23:04;;;;;;;30.50;16.92;;;;;;;-144.05;86.51;56946.53;5034012;28;20503;-80
2023/08/30 04:25:31;;;;;;;31.25;18.80;;;;;;;-144.05;86.55;56901.94;5034433;28;20029;-81
2023/08/30 04:27:57;;;;;;;23.95;15.35;;;;;;;-144.05;86.50;56946.53;5033840;28;20044;-80
2023/08/30 04:30:23;;;;;;;29.00;16.90;;;;;;;-144.05;86.77;56925.28;5029623;28;20030;-80
2023/08/30 04:32:50;;;;;;;24.58;16.42;;;;;;;-144.05;86.86;56912.56;5014313;28;20508;-80
2023/08/30 04:35:16;;;;;;;25.02;15.13;;;;;;;-144.05;86.74;56916.81;5014570;28;20133;-80
2023/08/30 04:37:42;;;;;;;34.92;19.27;;;;;;;-144.05;87.09;56895.56;5013564;28;20030;-78
2023/08/30 04:40:10;;;;;;;31.95;19.27;;;;;;;-144.05;86.72;56927.41;5013306;28;20026;-80
2023/08/30 04:42:37;;;;;;;34.80;21.38;;;;;;;-144.05;87.09;56925.28;5029426;28;20022;-79
2023/08/30 04:45:04;;;;;;;33.00;21.73;;;;;;;-144.05;87.37;56927.41;5014366;28;20049;-81
2023/08/30 04:47:32;;;;;;;35.05;22.63;;;;;;;-144.05;87.85;56918.94;5014132;28;20037;-79
2023/08/30 04:49:59;;;;;;;37.50;22.25;;;;;;;-144.05;87.50;56912.56;5013267;28;20109;-78
2023/08/30 04:52:25;;;;;;;42.60;24.30;;;;;;;-144.05;87.68;56931.66;5013104;28;20796;-80
2023/08/30 04:54:52;;;;;;;33.85;20.58;;;;;;;-144.05;87.29;56908.31;5013325;28;20033;-79
2023/08/30 04:57:18;;;;;;;37.78;22.98;;;;;;;-144.05;87.18;56927.41;5013259;28;20025;-80
2023/08/30 04:59:45;;;;;;;34.60;20.95;;;13.10;99.90;;;-144.05;87.04;56946.53;5027666;28;20092;-80
2023/08/30 05:02:12;;;;;;;37.15;22.35;;;;;;;-144.05;87.25;56948.66;5012767;28;20042;-79
2023/08/30 05:04:38;;;;;;;41.00;24.63;;;;;;;-144.05;87.47;56906.19;5012489;28;20028;-79
2023/08/30 05:07:04;;;;;;;39.38;24.30;;;;;;;-144.05;87.54;56912.56;5011145;28;20030;-79
2023/08/30 05:09:32;;;;;;;38.50;23.80;;;;;;;-144.05;87.64;56916.81;5027645;28;20030;-80
2023/08/30 05:11:58;;;;;;;36.88;23.63;;;;;;;-144.05;87.48;56918.94;5012760;28;20030;-80
2023/08/30 05:14:24;;;;;;;36.83;22.77;;;;;;;-144.05;87.37;56916.81;5012518;28;20034;-78
2023/08/30 05:16:51;;;;;;;42.53;24.00;;;;;;;-144.05;87.40;56895.56;5012983;28;20037;-80
2023/08/30 05:19:17;;;;;;;33.30;20.52;;;;;;;-144.05;87.22;56940.16;5012746;28;20030;-79
2023/08/30 05:21:44;;;;;;;41.40;21.90;;;;;;;-144.05;87.19;56910.44;5013502;28;20026;-80
2023/08/30 05:24:11;;;;;;;36.13;21.65;;;;;;;-144.05;87.00;56935.91;5027906;28;20030;-80
2023/08/30 05:26:37;;;;;;;40.45;22.98;;;;;;;-144.05;86.88;56931.66;5013295;28;20026;-80
2023/08/30 05:29:04;;;;;;;45.90;26.70;;;13.90;99.90;;;-144.05;87.30;56908.31;5033534;28;20029;-80
2023/08/30 05:31:30;;;;;;;43.15;25.88;;;;;;;-144.05;86.98;56908.31;5032258;28;20040;-79
2023/08/30 05:33:56;;;;;;;38.60;23.63;;;;;;;-144.05;86.82;56935.91;5031571;28;20040;-80
2023/08/30 05:36:22;;;;;;;35.22;21.00;;;;;;;-144.05;86.74;56910.44;5031895;28;20403;-79
2023/08/30 05:38:49;;;;;;;32.95;21.63;;;;;;;-144.05;86.08;56942.28;5032021;28;20035;-83
2023/08/30 05:41:15;;;;;;;39.47;22.75;;;;;;;-144.05;86.22;56904.06;5030622;28;20361;-80
2023/08/30 05:43:41;;;;;;;33.95;19.90;;;;;;;-144.05;86.24;56914.69;5033410;28;20025;-80
2023/08/30 05:46:14;;;;;;;41.70;25.45;;;;;;;-144.05;86.25;56925.28;5033900;28;20596;-79
2023/08/30 05:48:40;;;;;;;41.83;23.63;;;;;;;-144.05;86.18;56908.31;5033744;28;20037;-83
2023/08/30 05:51:07;;;;;;;40.10;23.60;;;;;;;-144.05;86.24;56933.78;5033001;28;20036;-81
2023/08/30 05:53:33;;;;;;;48.20;26.83;;;;;;;-144.05;86.22;56901.94;5046905;28;20147;-80
2023/08/30 05:55:59;;;;;;;48.58;26.63;;;;;;;-144.05;86.40;56916.81;5047030;28;20025;-80
2023/08/30 05:58:25;;;;;;;43.10;26.77;;;;;;;-144.05;86.12;56959.28;5048032;28;20095;-79
2023/08/30 06:00:52;;;;;;;42.25;27.25;;;;;;;-144.05;86.13;56916.81;5032500;28;20036;-80
2023/08/30 06:03:18;;;;;;;51.33;27.58;;;;;;;-144.05;85.99;56916.81;5033663;28;20489;-80
2023/08/30 06:05:44;;;;;;;50.90;28.20;;;;;;;-144.05;85.29;56914.69;5033581;28;20097;-79
2023/08/30 06:08:11;;;;;;;46.28;28.38;;;;;;;-144.05;85.13;56942.28;5033114;28;20440;-80
2023/08/30 06:10:38;;;;;;;41.17;24.88;;;;;;;-144.05;84.61;56938.03;5034876;28;20043;-81
2023/08/30 06:13:05;;;;;;;43.60;26.60;;;;;;;-144.05;83.77;56946.53;5052738;28;20030;-80
2023/08/30 06:15:31;;;;;;;45.40;26.85;;;;;;;-144.05;83.52;56916.81;5044587;28;20030;-79
2023/08/30 06:17:58;;;;;;;39.35;24.48;;;;;;;-144.05;82.89;56935.91;5043333;28;20037;-81
2023/08/30 06:20:24;;;;;;;41.40;25.35;;;;;;;-144.05;82.64;56933.78;5040318;28;20030;-81
2023/08/30 06:22:51;;;;;;;37.13;24.08;;;;;;;-144.05;81.25;56940.16;5039216;28;20041;-80
2023/08/30 06:25:17;;;;;;;38.97;23.60;;;;;;;-144.05;80.94;56940.16;5037495;28;20543;-79
2023/08/30 06:27:57;;;;;;;36.95;22.50;;;14.40;99.90;;;-144.05;79.89;56940.16;5037068;28;20041;-80
2023/08/30 06:30:23;;;;;;;36.55;23.10;;;;;;;-144.05;79.58;56935.91;5035014;28;20083;-80
2023/08/30 06:32:49;;;;;;;32.08;22.08;;;;;;;-144.05;79.47;56938.03;5036971;28;20034;-81
2023/08/30 06:35:16;;;;;;;32.30;22.67;;;;;;;-144.05;79.05;56938.03;5035412;28;20033;-80
2023/08/30 06:37:42;;;;;;;32.10;21.05;;;;;;;-144.05;78.69;56931.66;5036494;28;20025;-79
2023/08/30 06:40:09;;;;;;;34.83;21.95;;;;;;;-144.05;78.03;56950.78;5036188;28;20100;-79
2023/08/30 06:42:35;;;;;;;34.67;21.20;;;;;;;-144.05;77.57;56889.19;5049539;28;20036;-78
2023/08/30 06:45:03;;;;;;;30.15;20.25;;;15.00;99.90;;;-144.05;77.35;56952.91;5041074;28;20380;-80
2023/08/30 06:47:29;;;;;;;31.00;20.02;;;;;;;-144.05;76.86;56925.28;5054310;28;20095;-80
2023/08/30 06:49:55;;;;;;;30.85;19.83;;;;;;;-144.05;76.23;56946.53;5054110;28;20622;-80
2023/08/30 06:52:21;;;;;;;27.13;19.88;;;;;;;-144.05;75.84;56942.28;5037950;28;20116;-79
2023/08/30 06:54:48;;;;;;;35.90;21.48;;;;;;;-144.05;76.48;56972.03;5037116;28;20095;-80
2023/08/30 06:57:14;;;;;;;29.50;20.48;;;;;;;-144.05;75.46;56931.66;5036280;28;20092;-81
2023/08/30 06:59:40;;;;;;;31.23;19.52;;;;;;;-144.05;75.24;56929.53;5036351;28;20548;-81
2023/08/30 07:02:06;;;;;;;28.10;18.15;;;;;;;-144.05;74.33;56957.16;5035168;28;20079;-79
2023/08/30 07:04:33;;;;;;;35.67;19.58;;;;;;;-144.05;72.53;56940.16;5051948;28;20022;-79
2023/08/30 07:06:59;;;;;;;32.50;18.98;;;;;;;-144.05;72.33;56933.78;5036347;28;20036;-82
2023/08/30 07:09:28;;;;;;;30.67;20.50;;;;;;;-144.05;72.75;56955.03;5037448;28;20116;-80
2023/08/30 07:11:58;;;;;;;28.73;19.67;;;16.30;99.90;;;-144.05;70.88;56938.03;5052888;28;20040;-80
2023/08/30 07:14:26;;;;;;;29.17;20.05;;;;;;;-144.05;70.98;56933.78;5038532;28;20029;-81
2023/08/30 07:16:52;;;;;;;26.05;18.67;;;;;;;-144.05;71.43;56946.53;5039190;28;20176;-79
2023/08/30 07:19:18;;;;;;;26.92;20.33;;;;;;;-144.05;70.67;56948.66;5054048;28;20061;-79
2023/08/30 07:21:45;;;;;;;28.83;19.75;;;;;;;-144.05;69.29;56927.41;5038773;28;20167;-80
2023/08/30 07:24:12;;;;;;;28.70;18.80;;;16.80;99.90;;;-144.05;68.66;56961.41;5039942;28;20025;-81
2023/08/30 07:26:38;;;;;;;27.05;19.13;;;;;;;-144.05;67.81;56955.03;5038063;28;20481;-80
2023/08/30 07:29:04;;;;;;;27.23;19.55;;;;;;;-144.05;67.32;56944.41;5039149;28;20033;-78
2023/08/30 07:31:32;;;;;;;31.42;20.67;;;;;;;-144.05;66.96;56933.78;5050462;28;20029;-79
2023/08/30 07:33:59;;;;;;;34.25;21.55;;;;;;;-144.05;67.58;56916.81;5050418;28;20085;-79
2023/08/30 07:36:28;;;;;;;29.05;20.50;;;;;;;-144.05;66.39;56938.03;5050252;28;20087;-80
2023/08/30 07:38:55;;;;;;;32.05;20.83;;;17.90;99.90;;;-144.05;65.67;56948.66;5052839;28;20071;-79
2023/08/30 07:41:21;;;;;;;30.25;17.83;;;;;;;-144.05;63.11;56961.41;5046298;28;20033;-79
2023/08/30 07:43:47;;;;;;;25.55;17.65;;;;;;;-144.05;62.87;56978.41;5037912;28;20036;-80
2023/08/30 07:46:13;;;;;;;25.63;17.73;;;;;;;-144.05;63.31;56935.91;5037212;28;20032;-80
2023/08/30 07:48:39;;;;;;;27.67;19.15;;;;;;;-144.05;63.55;56950.78;5035919;28;20385;-79
2023/08/30 07:51:06;;;;;;;22.98;17.08;;;;;;;-144.05;63.62;56955.03;5036753;28;20036;-79
2023/08/30 07:53:32;;;;;;;24.63;17.67;;;;;;;-144.05;64.81;56978.41;5037269;28;20032;-80
2023/08/30 07:55:58;;;;;;;26.08;17.73;;;;;;;-144.05;64.84;56959.28;5051492;28;20033;-81
2023/08/30 07:58:24;;;;;;;25.48;16.58;;;;;;;-144.05;64.09;56942.28;5037529;28;20069;-79
2023/08/30 08:00:53;;;;;;;27.30;16.67;;;17.50;99.90;;;-144.05;64.04;56929.53;5038877;28;20379;-80
2023/08/30 08:03:22;;;;;;;21.92;14.45;;;17.90;99.90;;;-144.05;62.74;56972.03;5038298;28;20025;-79
2023/08/30 08:05:49;;;;;;;22.67;15.15;;;;;;;-144.05;60.27;56961.41;5039131;28;20075;-79
2023/08/30 08:08:16;;;;;;;21.73;14.55;;;;;;;-144.05;60.97;56963.53;5039054;28;20081;-80
2023/08/30 08:10:44;;;;;;;25.05;14.45;;;18.60;99.90;;;-144.05;59.00;56976.28;5037843;28;20037;-78
2023/08/30 08:13:12;;;;;;;21.65;14.10;;;;;;;-144.05;57.55;56944.41;5037622;28;20036;-79
2023/08/30 08:15:38;;;;;;;21.13;12.40;;;;;;;-144.05;57.92;56969.91;5037325;28;20040;-81
2023/08/30 08:18:05;;;;;;;23.52;11.95;;;;;;;-144.05;56.86;56955.03;5044601;28;20065;-83
2023/08/30 08:20:32;;;;;;;18.98;12.63;;;;;;;-144.05;57.17;56938.03;5041446;28;20397;-82
2023/08/30 08:22:58;;;;;;;20.77;11.40;;;;;;;-144.05;55.96;56980.53;5039230;28;20551;-80
2023/08/30 08:25:25;;;;;;;16.08;9.73;;;;;;;-144.05;55.38;56986.91;5039314;28;20034;-78
2023/08/30 08:27:51;;;;;;;15.30;9.35;;;;;;;-144.05;54.54;56974.16;5038012;28;20034;-81
2023/08/30 08:30:18;;;;;;;12.05;7.18;;;;;;;-144.05;52.61;56935.91;5037047;28;20432;-80
2023/08/30 08:32:49;;;;;;;10.48;6.80;;;20.30;99.90;;;-144.05;52.68;56965.66;5037540;28;20022;-79
2023/08/30 08:35:16;;;;;;;13.45;6.95;;;;;;;-144.05;51.82;56972.03;5036758;28;20440;-79
2023/08/30 08:37:42;;;;;;;9.82;6.60;;;;;;;-144.05;52.12;56957.16;5037161;28;20558;-81
2023/08/30 08:40:10;;;;;;;8.77;5.68;;;;;;;-144.05;50.34;56957.16;5037024;28;20047;-79
2023/08/30 08:42:37;;;;;;;9.02;5.20;;;;;;;-144.05;51.85;56955.03;5037130;28;20025;-81
2023/08/30 08:45:04;;;;;;;6.38;4.43;;;20.20;99.90;;;-144.05;50.52;56974.16;5052440;28;20036;-80
2023/08/30 08:47:31;;;;;;;7.97;4.85;;;20.80;99.90;;;-144.05;51.71;56982.66;5035999;28;20092;-81
2023/08/30 08:50:03;;;;;;;8.43;4.50;;;20.30;99.90;;;-144.05;50.42;56972.03;5036502;28;20479;-80
2023/08/30 08:52:30;;;;;;;8.25;5.05;;;;;;;-144.05;50.93;56961.41;5035596;28;20469;-80
2023/08/30 08:54:59;;;;;;;7.05;3.80;;;20.00;99.90;;;-144.05;51.51;56965.66;5051068;28;20065;-80
2023/08/30 08:57:31;;;;;;;6.15;3.65;;;19.80;99.90;;;-144.05;52.09;56952.91;5034408;28;20035;-80
2023/08/30 08:59:58;;;;;;;13.13;3.70;;;;;;;-144.05;51.01;56967.78;5036450;28;20227;-79
2023/08/30 09:02:24;;;;;;;6.63;3.17;;;;;;;-144.05;50.62;56944.41;5052147;28;20025;-82
2023/08/30 09:04:52;;;;;;;5.43;3.72;;;;;;;-144.05;49.93;56980.53;5034716;28;20055;-79
2023/08/30 09:07:19;;;;;;;6.78;3.88;;;;;;;-144.05;49.61;56978.41;5034708;28;20030;-80
2023/08/30 09:09:46;;;;;;;5.43;3.53;;;;;;;-144.05;50.73;56952.91;5035351;28;20037;-78
2023/08/30 09:12:13;;;;;;;4.70;3.85;;;;;;;-144.05;49.75;56946.53;5035380;28;20447;-81
2023/08/30 09:14:39;;;;;;;4.60;3.13;;;;;;;-144.05;50.27;56938.03;5035143;28;20025;-81
2023/08/30 09:17:05;;;;;;;5.95;3.78;;;;;;;-144.05;49.88;56982.66;5035268;28;20029;-80
2023/08/30 09:19:31;;;;;;;4.57;2.90;;;;;;;-144.05;48.88;56965.66;5036055;28;20060;-81
2023/08/30 09:21:59;;;;;;;7.07;3.33;;;20.90;99.90;;;-144.05;49.34;56963.53;5053656;28;20053;-78
2023/08/30 09:24:37;;;;;;;7.43;3.38;;;20.60;99.90;;;-144.05;49.02;56991.13;5053484;28;20041;-80
2023/08/30 09:27:04;;;;;;;7.90;3.35;;;;;;;-144.05;49.93;56976.28;5038149;28;20481;-79
2023/08/30 09:29:31;;;;;;;5.28;2.95;;;;;;;-144.05;49.31;56940.16;5036924;28;20036;-77
2023/08/30 09:31:58;;;;;;;9.75;3.85;;;;;;;-144.05;48.94;56961.41;5038842;28;20030;-81
2023/08/30 09:34:25;;;;;;;7.43;3.78;;;;;;;-144.05;48.22;56974.16;5037633;28;20033;-79
2023/08/30 09:36:53;;;;;;;8.68;3.22;;;;;;;-144.05;47.99;57003.88;5036647;28;20029;-81
2023/08/30 09:39:20;;;;;;;10.68;4.00;;;;;;;-144.05;46.61;56999.63;5036633;28;20037;-80
2023/08/30 09:41:50;;;;;;;4.80;3.17;;;20.70;99.90;;;-144.05;47.41;56984.78;5049893;28;20061;-79
2023/08/30 09:44:21;;;;;;;8.32;3.13;;;20.50;99.90;;;-144.05;47.37;56995.38;5038407;28;20027;-83
2023/08/30 09:46:55;;;;;;;6.90;3.33;;;20.00;99.90;;;-144.05;47.26;56978.41;5056481;28;20037;-81
2023/08/30 09:49:26;;;;;;;5.18;3.38;;;20.60;99.90;;;-144.05;48.01;56984.78;5057027;28;20625;-80
2023/08/30 09:51:54;;;;;;;7.70;3.47;;;20.20;99.90;;;-144.05;48.10;56972.03;5040630;28;20494;-80
2023/08/30 09:54:25;;;;;;;6.03;3.08;;;18.50;99.90;;;-144.05;49.14;56942.28;5038808;28;20095;-79
2023/08/30 09:56:57;;;;;;;6.40;3.20;;;;;;;-144.05;51.04;56948.66;5042665;28;20047;-80
2023/08/30 09:59:24;;;;;;;7.25;4.40;;;18.80;99.90;;;-144.05;51.46;56967.78;5041035;28;20025;-78
2023/08/30 10:01:52;;;;;;;6.60;3.42;;;;;;;-144.05;51.78;56925.28;5038175;28;20497;-79
2023/08/30 10:04:20;;;;;;;5.10;3.22;;;19.30;99.90;;;-144.05;51.73;56976.28;5035788;28;20037;-78
2023/08/30 10:06:47;;;;;;;5.53;3.28;;;19.20;99.90;;;-144.05;51.65;56982.66;5037464;28;20021;-79
2023/08/30 10:09:16;;;;;;;10.43;3.92;;;19.20;99.90;;;-144.05;51.03;56965.66;5039282;28;20354;-80
2023/08/30 10:11:46;;;;;;;6.65;3.33;;;20.50;99.90;;;-144.05;50.34;56965.66;5039740;28;20096;-79
2023/08/30 10:14:14;;;;;;;5.70;3.20;;;20.10;99.90;;;-144.05;49.90;56938.03;5038029;28;20026;-81
2023/08/30 10:16:49;;;;;;;5.82;3.40;;;19.70;99.90;;;-144.05;49.84;56982.66;5054166;28;20527;-77
2023/08/30 10:19:27;;;;;;;5.70;3.40;;;20.20;99.90;;;-144.05;49.32;56989.00;5037920;28;20400;-77
2023/08/30 10:22:12;;;;;;;6.78;3.50;;;20.60;99.90;;;-144.05;49.38;56972.03;5035868;28;20030;-80
2023/08/30 10:24:51;;;;;;;7.32;3.92;;;19.40;99.90;;;-144.05;49.75;56982.66;5037454;28;20108;-80
2023/08/30 10:27:19;;;;;;;7.30;3.70;;;;;;;-144.05;53.17;56963.53;5053009;28;20041;-79
2023/08/30 10:29:50;;;;;;;6.45;3.72;;;18.50;99.90;;;-144.05;53.58;56925.28;5038537;28;20505;-79
2023/08/30 10:32:23;;;;;;;8.63;3.88;;;18.40;99.90;;;-144.05;52.75;56967.78;5038249;28;20060;-78
2023/08/30 10:34:51;;;;;;;7.75;3.92;;;18.50;99.90;;;-144.05;53.62;56957.16;5038084;28;20430;-81
2023/08/30 10:37:26;;;;;;;7.10;4.13;;;19.00;99.90;;;-144.05;54.77;56978.41;5037732;28;20079;-78
2023/08/30 10:39:59;;;;;;;8.40;4.30;;;;;;;-144.05;57.20;56946.53;5036892;28;20033;-79
2023/08/30 10:42:25;;;;;;;6.95;4.85;;;;;;;-144.05;59.80;56938.03;5037783;28;20163;-78
2023/08/30 10:44:59;;;;;;;10.13;5.05;;;;;;;-144.05;61.78;56944.41;5037250;28;20033;-77
2023/08/30 10:47:30;;;;;;;7.38;4.65;;;18.80;99.90;;;-144.05;61.94;56961.41;5038210;28;20033;-77
2023/08/30 10:50:04;;;;;;;7.45;5.18;;;17.50;99.90;;;-144.05;63.45;56927.41;5053738;28;20034;-79